createdAt,value
2018-04-24T00:01:40.883Z,13.60
2018-04-24T00:04:09.954Z,13.60
2018-04-24T00:06:38.219Z,13.60
2018-04-24T00:09:06.481Z,13.60
2018-04-24T00:11:34.758Z,13.60
2018-04-24T00:14:03.082Z,13.60
2018-04-24T00:16:31.361Z,13.50
2018-04-24T00:18:59.620Z,13.50
2018-04-24T00:21:27.907Z,13.40
2018-04-24T00:23:56.169Z,13.40
2018-04-24T00:26:24.449Z,13.40
2018-04-24T00:28:52.743Z,13.30
2018-04-24T00:31:21.019Z,13.20
2018-04-24T00:33:49.294Z,13.10
2018-04-24T00:36:17.592Z,13.10
2018-04-24T00:38:45.843Z,13.00
2018-04-24T00:41:14.230Z,13.00
2018-04-24T00:43:42.480Z,13.00
2018-04-24T00:46:10.772Z,12.90
2018-04-24T00:48:39.060Z,12.90
2018-04-24T00:51:07.350Z,12.80
2018-04-24T00:53:40.392Z,12.80
2018-04-24T00:56:08.673Z,12.80
2018-04-24T00:58:36.958Z,12.80
2018-04-24T01:01:05.231Z,12.60
2018-04-24T01:03:33.545Z,12.60
2018-04-24T01:06:01.824Z,12.60
2018-04-24T01:08:30.122Z,12.60
2018-04-24T01:10:59.160Z,12.60
2018-04-24T01:13:27.440Z,12.60
2018-04-24T01:15:55.700Z,12.60
2018-04-24T01:18:23.991Z,12.60
2018-04-24T01:20:52.271Z,12.60
2018-04-24T01:23:20.560Z,12.60
2018-04-24T01:25:48.825Z,12.60
2018-04-24T01:28:17.112Z,12.60
2018-04-24T01:30:45.380Z,12.50
2018-04-24T01:33:13.701Z,12.50
2018-04-24T01:35:41.949Z,12.40
2018-04-24T01:38:10.252Z,12.40
2018-04-24T01:40:38.514Z,12.40
2018-04-24T01:43:06.794Z,12.30
2018-04-24T01:45:35.070Z,12.40
2018-04-24T01:48:03.443Z,12.30
2018-04-24T01:50:31.706Z,12.30
2018-04-24T01:52:59.996Z,12.20
2018-04-24T01:55:28.258Z,12.20
2018-04-24T01:57:56.548Z,12.20
2018-04-24T02:00:24.798Z,12.30
2018-04-24T02:02:53.110Z,12.30
2018-04-24T02:05:21.357Z,12.30
2018-04-24T02:07:49.649Z,12.40
2018-04-24T02:10:17.903Z,12.30
2018-04-24T02:12:46.213Z,12.50
2018-04-24T02:15:14.475Z,12.50
2018-04-24T02:17:42.762Z,12.60
2018-04-24T02:20:11.791Z,12.50
2018-04-24T02:22:40.094Z,12.50
2018-04-24T02:25:09.110Z,12.50
2018-04-24T02:27:37.395Z,12.40
2018-04-24T02:30:06.001Z,12.50
2018-04-24T02:32:34.287Z,12.50
2018-04-24T02:35:02.548Z,12.50
2018-04-24T02:37:30.823Z,12.50
2018-04-24T02:39:59.125Z,12.60
2018-04-24T02:42:27.375Z,12.50
2018-04-24T02:44:55.666Z,12.50
2018-04-24T02:47:23.935Z,12.50
2018-04-24T02:49:52.319Z,12.40
2018-04-24T02:52:20.574Z,12.50
2018-04-24T02:54:48.868Z,12.50
2018-04-24T02:57:17.129Z,12.40
2018-04-24T02:59:45.413Z,12.30
2018-04-24T03:02:13.673Z,12.30
2018-04-24T03:04:41.963Z,12.20
2018-04-24T03:07:10.218Z,12.30
2018-04-24T03:09:38.523Z,12.30
2018-04-24T03:12:06.798Z,12.30
2018-04-24T03:14:35.090Z,12.20
2018-04-24T03:17:03.343Z,12.20
2018-04-24T03:19:31.747Z,12.30
2018-04-24T03:22:00.030Z,12.20
2018-04-24T03:24:28.332Z,12.20
2018-04-24T03:26:57.379Z,12.30
2018-04-24T03:29:25.669Z,12.30
2018-04-24T03:31:53.941Z,12.30
2018-04-24T03:34:22.234Z,12.20
2018-04-24T03:36:50.483Z,12.20
2018-04-24T03:39:18.757Z,12.20
2018-04-24T03:41:47.019Z,12.30
2018-04-24T03:44:15.304Z,12.20
2018-04-24T03:46:43.554Z,12.20
2018-04-24T03:49:12.711Z,12.10
2018-04-24T03:51:40.966Z,12.10
2018-04-24T03:54:09.299Z,12.10
2018-04-24T03:56:37.543Z,12.10
2018-04-24T03:59:06.031Z,12.10
2018-04-24T04:01:34.283Z,12.10
2018-04-24T04:04:02.563Z,12.10
2018-04-24T04:06:30.831Z,12.20
2018-04-24T04:08:59.135Z,12.20
2018-04-24T04:11:27.390Z,12.30
2018-04-24T04:13:55.651Z,12.30
2018-04-24T04:16:23.994Z,12.40
2018-04-24T04:19:04.879Z,12.40
2018-04-24T04:21:45.920Z,12.40
2018-04-24T04:27:16.036Z,12.40
2018-04-24T04:29:44.339Z,12.40
2018-04-24T04:32:12.603Z,12.40
2018-04-24T04:34:40.892Z,12.50
2018-04-24T04:37:09.162Z,12.50
2018-04-24T04:39:37.450Z,12.60
2018-04-24T04:42:05.714Z,12.60
2018-04-24T04:44:34.002Z,12.70
2018-04-24T04:47:02.262Z,12.80
2018-04-24T04:49:30.558Z,12.80
2018-04-24T04:51:58.804Z,12.80
2018-04-24T04:54:27.111Z,12.80
2018-04-24T04:56:56.140Z,12.80
2018-04-24T04:59:24.390Z,12.80
2018-04-24T05:01:52.675Z,12.70
2018-04-24T05:04:20.930Z,12.80
2018-04-24T05:06:50.875Z,12.90
2018-04-24T05:09:19.134Z,12.80
2018-04-24T05:11:48.179Z,12.90
2018-04-24T05:14:16.435Z,12.90
2018-04-24T05:16:44.739Z,12.90
2018-04-24T05:19:13.006Z,12.90
2018-04-24T05:21:41.407Z,13.10
2018-04-24T05:24:09.682Z,13.20
2018-04-24T05:26:38.066Z,13.10
2018-04-24T05:29:07.017Z,13.20
2018-04-24T05:31:35.298Z,13.20
2018-04-24T05:34:03.562Z,13.20
2018-04-24T05:36:31.979Z,13.20
2018-04-24T05:39:00.252Z,13.10
2018-04-24T05:41:28.632Z,13.10
2018-04-24T05:43:56.901Z,13.00
2018-04-24T05:46:25.292Z,13.10
2018-04-24T05:48:53.548Z,12.90
2018-04-24T05:51:21.843Z,13.10
2018-04-24T05:53:50.789Z,13.10
2018-04-24T05:56:19.224Z,13.10
2018-04-24T05:58:47.494Z,13.20
2018-04-24T06:01:15.791Z,13.30
2018-04-24T06:03:44.049Z,13.40
2018-04-24T06:06:12.335Z,13.30
2018-04-24T06:08:40.617Z,13.30
2018-04-24T06:11:08.958Z,13.30
2018-04-24T06:13:37.259Z,13.40
2018-04-24T06:16:05.638Z,13.50
2018-04-24T06:18:33.915Z,13.50
2018-04-24T06:21:02.214Z,13.60
2018-04-24T06:23:30.527Z,13.70
2018-04-24T06:25:58.820Z,13.80
2018-04-24T06:28:28.200Z,13.80
2018-04-24T06:30:56.504Z,13.90
2018-04-24T06:33:24.809Z,13.70
2018-04-24T06:35:53.094Z,13.70
2018-04-24T06:38:21.370Z,13.70
2018-04-24T06:40:49.711Z,13.80
2018-04-24T06:43:18.125Z,14.00
2018-04-24T06:45:46.375Z,14.10
2018-04-24T06:48:14.660Z,14.10
2018-04-24T06:50:42.926Z,14.20
2018-04-24T06:53:11.215Z,14.20
2018-04-24T06:55:39.508Z,14.20
2018-04-24T06:58:07.794Z,14.20
2018-04-24T07:00:36.088Z,14.20
2018-04-24T07:03:04.357Z,14.10
2018-04-24T07:05:32.632Z,14.10
2018-04-24T07:08:01.813Z,14.20
2018-04-24T07:10:30.070Z,14.20
2018-04-24T07:12:58.361Z,14.20
2018-04-24T07:15:26.660Z,14.30
2018-04-24T07:17:54.935Z,14.40
2018-04-24T07:20:23.198Z,14.60
2018-04-24T07:22:51.520Z,14.70
2018-04-24T07:25:20.548Z,14.90
2018-04-24T07:27:48.850Z,14.80
2018-04-24T07:30:17.114Z,15.00
2018-04-24T07:32:45.418Z,15.10
2018-04-24T07:35:13.790Z,15.20
2018-04-24T07:37:42.086Z,15.40
2018-04-24T07:40:10.350Z,15.50
2018-04-24T07:42:40.159Z,15.70
2018-04-24T07:45:08.450Z,15.60
2018-04-24T07:47:36.812Z,15.90
2018-04-24T07:50:05.123Z,16.10
2018-04-24T07:52:34.165Z,16.20
2018-04-24T07:55:02.458Z,16.20
2018-04-24T07:57:30.714Z,16.20
2018-04-24T07:59:59.015Z,16.30
2018-04-24T08:02:27.395Z,16.30
2018-04-24T08:04:55.771Z,16.40
2018-04-24T08:07:24.036Z,16.40
2018-04-24T08:09:52.458Z,16.50
2018-04-24T08:12:21.525Z,16.50
2018-04-24T08:14:50.597Z,16.40
2018-04-24T08:17:18.871Z,16.40
2018-04-24T08:19:47.160Z,16.50
2018-04-24T08:22:15.442Z,16.70
2018-04-24T08:24:43.796Z,16.60
2018-04-24T08:27:12.210Z,16.70
2018-04-24T08:29:40.502Z,16.80
2018-04-24T08:32:08.779Z,16.90
2018-04-24T08:34:37.145Z,17.10
2018-04-24T08:37:05.422Z,17.30
2018-04-24T08:39:33.723Z,17.20
2018-04-24T08:42:02.007Z,17.30
2018-04-24T08:44:31.072Z,17.40
2018-04-24T08:46:59.467Z,17.30
2018-04-24T08:49:27.775Z,17.30
2018-04-24T08:51:56.062Z,17.50
2018-04-24T08:54:24.384Z,17.90
2018-04-24T08:56:52.874Z,18.00
2018-04-24T08:59:21.158Z,18.20
2018-04-24T09:01:49.520Z,18.50
2018-04-24T09:04:17.819Z,18.50
2018-04-24T09:06:46.138Z,18.40
2018-04-24T09:09:14.461Z,18.10
2018-04-24T09:11:42.755Z,17.90
2018-04-24T09:14:11.042Z,18.00
2018-04-24T09:16:40.102Z,17.80
2018-04-24T09:19:08.366Z,17.80
2018-04-24T09:21:36.661Z,17.90
2018-04-24T09:24:04.941Z,18.00
2018-04-24T09:26:34.133Z,17.80
2018-04-24T09:29:02.384Z,17.80
2018-04-24T09:31:36.415Z,17.50
2018-04-24T09:34:04.671Z,17.50
2018-04-24T09:36:33.082Z,17.50
2018-04-24T09:39:01.430Z,17.50
2018-04-24T09:41:29.618Z,17.30
2018-04-24T09:43:57.914Z,17.20
2018-04-24T09:46:26.199Z,17.10
2018-04-24T09:48:54.470Z,16.90
2018-04-24T09:51:22.817Z,16.80
2018-04-24T09:53:51.124Z,17.00
2018-04-24T09:56:19.401Z,17.20
2018-04-24T09:58:47.672Z,17.30
2018-04-24T10:01:16.059Z,17.40
2018-04-24T10:03:44.302Z,17.60
2018-04-24T10:06:12.599Z,17.70
2018-04-24T10:08:41.299Z,17.50
2018-04-24T10:11:09.680Z,17.50
2018-04-24T10:13:37.978Z,17.50
2018-04-24T10:16:06.258Z,17.50
2018-04-24T10:18:34.520Z,17.30
2018-04-24T10:21:03.595Z,17.40
2018-04-24T10:23:31.993Z,17.40
2018-04-24T10:26:00.277Z,17.50
2018-04-24T10:28:28.548Z,17.50
2018-04-24T10:30:56.821Z,17.80
2018-04-24T10:33:25.081Z,17.80
2018-04-24T10:35:53.477Z,17.80
2018-04-24T10:38:21.752Z,17.60
2018-04-24T10:40:49.996Z,17.30
2018-04-24T10:43:18.285Z,17.10
2018-04-24T10:45:46.584Z,17.20
2018-04-24T10:48:14.959Z,17.30
2018-04-24T10:50:43.254Z,17.50
2018-04-24T10:53:11.531Z,17.40
2018-04-24T10:55:39.905Z,17.60
2018-04-24T10:58:08.190Z,17.40
2018-04-24T11:00:37.313Z,17.50
2018-04-24T11:03:05.574Z,17.50
2018-04-24T11:05:33.864Z,17.30
2018-04-24T11:08:02.243Z,17.10
2018-04-24T11:10:30.499Z,16.90
2018-04-24T11:12:58.779Z,16.70
2018-04-24T11:15:27.813Z,16.80
2018-04-24T11:17:56.221Z,16.80
2018-04-24T11:20:24.691Z,16.70
2018-04-24T11:22:52.964Z,16.60
2018-04-24T11:25:21.223Z,16.50
2018-04-24T11:27:49.626Z,16.40
2018-04-24T11:30:17.921Z,16.50
2018-04-24T11:32:46.168Z,16.40
2018-04-24T11:35:14.430Z,16.50
2018-04-24T11:37:42.720Z,16.60
2018-04-24T11:40:10.987Z,16.70
2018-04-24T11:42:39.303Z,16.90
2018-04-24T11:45:07.754Z,17.00
2018-04-24T11:47:35.994Z,17.10
2018-04-24T11:50:04.272Z,17.20
2018-04-24T11:52:32.581Z,17.40
2018-04-24T11:55:00.843Z,17.50
2018-04-24T11:57:29.155Z,17.50
2018-04-24T11:59:57.428Z,17.40
2018-04-24T12:02:25.717Z,17.50
2018-04-24T12:04:54.094Z,17.50
2018-04-24T12:07:22.385Z,17.40
2018-04-24T12:09:50.659Z,17.40
2018-04-24T12:12:18.971Z,17.40
2018-04-24T12:14:47.233Z,17.30
2018-04-24T12:17:16.278Z,17.10
2018-04-24T12:19:44.574Z,17.10
2018-04-24T12:22:12.830Z,16.90
2018-04-24T12:24:41.119Z,16.90
2018-04-24T12:27:09.380Z,16.80
2018-04-24T12:29:37.675Z,16.90
2018-04-24T12:32:06.060Z,16.80
2018-04-24T12:34:34.440Z,16.70
2018-04-24T12:37:02.716Z,16.70
2018-04-24T12:39:31.100Z,16.90
2018-04-24T12:41:59.346Z,17.00
2018-04-24T12:44:27.759Z,17.20
2018-04-24T12:46:56.007Z,17.30
2018-04-24T12:49:24.294Z,17.30
2018-04-24T12:51:52.573Z,17.20
2018-04-24T12:54:20.964Z,17.20
2018-04-24T12:56:49.219Z,17.00
2018-04-24T12:59:17.616Z,16.90
2018-04-24T13:01:45.870Z,16.70
2018-04-24T13:04:14.165Z,16.50
2018-04-24T13:06:42.436Z,16.20
2018-04-24T13:09:10.826Z,16.20
2018-04-24T13:11:39.109Z,16.00
2018-04-24T13:14:07.489Z,16.00
2018-04-24T13:16:36.449Z,15.80
2018-04-24T13:19:04.721Z,15.80
2018-04-24T13:21:32.987Z,15.80
2018-04-24T13:24:02.138Z,15.50
2018-04-24T13:26:30.415Z,15.50
2018-04-24T13:28:58.792Z,15.30
2018-04-24T13:31:27.079Z,15.00
2018-04-24T13:33:55.382Z,14.70
2018-04-24T13:36:24.410Z,14.20
2018-04-24T13:38:52.701Z,14.20
2018-04-24T13:41:20.970Z,14.10
2018-04-24T13:43:49.270Z,13.90
2018-04-24T13:46:17.729Z,13.80
2018-04-24T13:48:46.855Z,13.70
2018-04-24T13:51:15.108Z,13.70
2018-04-24T13:53:43.407Z,13.70
2018-04-24T13:56:12.016Z,13.70
2018-04-24T13:58:40.296Z,13.70
2018-04-24T14:01:09.327Z,13.80
2018-04-24T14:03:37.745Z,13.80
2018-04-24T14:06:06.002Z,13.90
2018-04-24T14:08:34.400Z,14.10
2018-04-24T14:11:02.664Z,14.30
2018-04-24T14:13:31.058Z,14.40
2018-04-24T14:15:59.432Z,14.50
2018-04-24T14:18:27.715Z,14.50
2018-04-24T14:20:56.095Z,14.60
2018-04-24T14:23:24.355Z,14.80
2018-04-24T14:25:52.650Z,15.10
2018-04-24T14:28:20.912Z,15.60
2018-04-24T14:30:49.966Z,16.70
2018-04-24T14:33:18.276Z,16.70
2018-04-24T14:35:46.563Z,17.00
2018-04-24T14:38:14.824Z,17.30
2018-04-24T14:40:43.222Z,17.30
2018-04-24T14:43:11.499Z,17.30
2018-04-24T14:45:39.796Z,17.80
2018-04-24T14:48:08.865Z,18.00
2018-04-24T14:50:37.230Z,18.00
2018-04-24T14:53:05.533Z,17.80
2018-04-24T14:55:35.125Z,17.80
2018-04-24T14:58:03.379Z,17.70
2018-04-24T15:00:31.666Z,17.90
2018-04-24T15:02:59.930Z,18.30
2018-04-24T15:05:28.227Z,18.60
2018-04-24T15:07:56.487Z,18.20
2018-04-24T15:10:24.887Z,17.50
2018-04-24T15:12:53.164Z,17.20
2018-04-24T15:15:21.441Z,17.00
2018-04-24T15:17:49.703Z,16.80
2018-04-24T15:20:17.994Z,16.80
2018-04-24T15:22:46.264Z,16.60
2018-04-24T15:25:14.555Z,16.50
2018-04-24T15:27:42.822Z,16.20
2018-04-24T15:30:11.198Z,16.10
2018-04-24T15:32:39.456Z,15.80
2018-04-24T15:35:07.751Z,15.70
2018-04-24T15:37:36.010Z,15.70
2018-04-24T15:40:04.316Z,15.60
2018-04-24T15:42:32.614Z,15.50
2018-04-24T15:45:01.074Z,15.40
2018-04-24T15:47:29.453Z,15.30
2018-04-24T15:49:57.712Z,15.10
2018-04-24T15:52:26.117Z,15.20
2018-04-24T15:54:54.418Z,15.20
2018-04-24T15:57:22.678Z,15.20
2018-04-24T15:59:51.042Z,15.10
2018-04-24T16:02:19.420Z,15.10
2018-04-24T16:04:47.679Z,15.00
2018-04-24T16:07:16.072Z,15.10
2018-04-24T16:09:44.406Z,15.10
2018-04-24T16:12:12.729Z,15.00
2018-04-24T16:14:40.989Z,15.00
2018-04-24T16:17:09.393Z,15.20
2018-04-24T16:19:37.685Z,15.50
2018-04-24T16:22:06.042Z,15.80
2018-04-24T16:24:34.326Z,16.30
2018-04-24T16:27:02.630Z,17.30
2018-04-24T16:29:31.984Z,18.60
2018-04-24T16:32:00.194Z,18.50
2018-04-24T16:34:28.458Z,18.60
2018-04-24T16:36:56.738Z,18.60
2018-04-24T16:39:25.118Z,18.80
2018-04-24T16:41:54.204Z,18.90
2018-04-24T16:44:22.505Z,18.90
2018-04-24T16:46:50.790Z,19.00
2018-04-24T16:49:19.811Z,18.70
2018-04-24T16:51:48.102Z,18.70
2018-04-24T16:54:16.492Z,18.90
2018-04-24T16:56:44.718Z,19.10
2018-04-24T16:59:13.750Z,19.60
2018-04-24T17:01:42.044Z,19.50
2018-04-24T17:04:10.295Z,19.50
2018-04-24T17:06:38.625Z,20.20
2018-04-24T17:09:07.006Z,20.40
2018-04-24T17:11:35.382Z,20.10
2018-04-24T17:14:03.655Z,19.20
2018-04-24T17:16:31.941Z,18.50
2018-04-24T17:19:00.208Z,17.90
2018-04-24T17:21:28.601Z,17.90
2018-04-24T17:23:56.860Z,17.40
2018-04-24T17:26:25.150Z,17.20
2018-04-24T17:28:53.414Z,16.90
2018-04-24T17:31:21.696Z,16.80
2018-04-24T17:33:50.082Z,16.90
2018-04-24T17:36:18.348Z,16.90
2018-04-24T17:38:46.629Z,17.20
2018-04-24T17:41:14.886Z,17.30
2018-04-24T17:43:43.201Z,17.20
2018-04-24T17:46:11.573Z,17.00
2018-04-24T17:48:39.859Z,17.00
2018-04-24T17:51:08.161Z,16.60
2018-04-24T17:53:37.203Z,16.00
2018-04-24T17:56:05.472Z,16.00
2018-04-24T17:58:34.320Z,15.80
2018-04-24T18:01:03.364Z,15.70
2018-04-24T18:03:31.766Z,15.60
2018-04-24T18:06:00.035Z,15.50
2018-04-24T18:08:28.319Z,15.30
2018-04-24T18:10:56.596Z,15.10
2018-04-24T18:13:25.074Z,15.10
2018-04-24T18:15:53.350Z,15.00
2018-04-24T18:18:21.627Z,14.90
2018-04-24T18:20:49.890Z,14.90
2018-04-24T18:23:18.939Z,14.80
2018-04-24T18:25:48.048Z,14.80
2018-04-24T18:28:17.205Z,14.80
2018-04-24T18:30:45.712Z,14.80
2018-04-24T18:33:14.301Z,14.80
2018-04-24T18:35:43.372Z,14.60
2018-04-24T18:38:11.744Z,14.60
2018-04-24T18:40:40.532Z,14.60
2018-04-24T18:43:09.003Z,14.50
2018-04-24T18:45:37.274Z,14.50
2018-04-24T18:48:05.573Z,14.40
2018-04-24T18:50:34.216Z,14.40
2018-04-24T18:53:02.488Z,14.50
2018-04-24T18:55:30.775Z,14.40
2018-04-24T18:57:59.419Z,14.40
2018-04-24T19:00:27.855Z,14.40
2018-04-24T19:02:56.213Z,14.40
2018-04-24T19:05:24.489Z,14.40
2018-04-24T19:07:52.807Z,14.30
2018-04-24T19:10:21.054Z,14.30
2018-04-24T19:12:49.339Z,14.20
2018-04-24T19:15:17.595Z,14.20
2018-04-24T19:17:45.973Z,14.20
2018-04-24T19:20:14.231Z,14.20
2018-04-24T19:22:42.638Z,14.20
2018-04-24T19:25:16.611Z,14.20
2018-04-24T19:27:44.890Z,14.20
2018-04-24T19:30:13.196Z,14.20
2018-04-24T19:32:41.519Z,14.20
2018-04-24T19:35:10.682Z,14.20
2018-04-24T19:37:38.962Z,14.10
2018-04-24T19:40:13.053Z,14.20
2018-04-24T19:42:41.347Z,14.20
2018-04-24T19:45:09.631Z,14.20
2018-04-24T19:47:37.902Z,14.20
2018-04-24T19:50:11.990Z,14.20
2018-04-24T19:52:40.259Z,14.30
2018-04-24T19:55:14.275Z,14.30
2018-04-24T19:57:42.554Z,14.30
2018-04-24T20:00:11.649Z,14.20
2018-04-24T20:02:39.926Z,14.30
2018-04-24T20:05:08.211Z,14.30
2018-04-24T20:07:36.478Z,14.30
2018-04-24T20:10:04.766Z,14.20
2018-04-24T20:12:33.035Z,14.10
2018-04-24T20:15:01.341Z,14.00
2018-04-24T20:17:29.599Z,14.00
2018-04-24T20:19:57.886Z,14.10
2018-04-24T20:22:26.143Z,14.10
2018-04-24T20:24:55.513Z,14.10
2018-04-24T20:27:24.587Z,14.00
2018-04-24T20:29:52.978Z,14.00
2018-04-24T20:32:22.020Z,14.00
2018-04-24T20:34:50.423Z,13.90
2018-04-24T20:37:18.797Z,13.90
2018-04-24T20:39:47.079Z,13.90
2018-04-24T20:42:15.356Z,13.90
2018-04-24T20:44:43.641Z,13.80
2018-04-24T20:47:11.907Z,13.80
2018-04-24T20:49:40.291Z,13.80
2018-04-24T20:52:08.556Z,13.80
2018-04-24T20:54:36.849Z,13.80
2018-04-24T20:57:05.108Z,13.90
2018-04-24T20:59:33.419Z,14.00
2018-04-24T21:02:02.744Z,14.20
2018-04-24T21:04:31.797Z,14.20
2018-04-24T21:07:00.173Z,14.20
2018-04-24T21:09:28.553Z,14.30
2018-04-24T21:11:56.829Z,14.20
2018-04-24T21:14:25.215Z,14.20
2018-04-24T21:16:53.480Z,14.20
2018-04-24T21:19:21.767Z,14.20
2018-04-24T21:21:50.059Z,14.20
2018-04-24T21:24:18.334Z,14.20
2018-04-24T21:26:46.696Z,14.30
2018-04-24T21:29:14.966Z,14.30
2018-04-24T21:31:44.074Z,14.30
2018-04-24T21:34:12.340Z,14.20
2018-04-24T21:36:40.719Z,14.30
2018-04-24T21:39:08.992Z,14.20
2018-04-24T21:41:38.202Z,14.10
2018-04-24T21:44:06.458Z,14.10
2018-04-24T21:46:34.751Z,14.10
2018-04-24T21:49:03.023Z,14.10
2018-04-24T21:51:31.322Z,14.10
2018-04-24T21:53:59.591Z,14.10
2018-04-24T21:56:27.971Z,14.10
2018-04-24T21:58:56.233Z,14.00
2018-04-24T22:01:24.519Z,14.00
2018-04-24T22:03:52.799Z,14.10
2018-04-24T22:06:21.086Z,14.10
2018-04-24T22:08:49.354Z,14.10
2018-04-24T22:11:17.656Z,14.10
2018-04-24T22:13:46.763Z,14.10
2018-04-24T22:16:15.656Z,14.00
2018-04-24T22:18:44.707Z,14.10
2018-04-24T22:21:13.041Z,14.00
2018-04-24T22:23:41.365Z,14.00
2018-04-24T22:26:09.750Z,14.00
2018-04-24T22:28:38.030Z,14.10
2018-04-24T22:31:06.325Z,14.10
2018-04-24T22:33:34.607Z,14.10
2018-04-24T22:36:03.682Z,14.00
2018-04-24T22:38:32.050Z,14.00
2018-04-24T22:41:00.442Z,14.10
2018-04-24T22:43:28.711Z,14.10
2018-04-24T22:45:57.012Z,14.10
2018-04-24T22:48:25.370Z,14.10
2018-04-24T22:50:53.755Z,14.00
2018-04-24T22:53:22.027Z,14.10
2018-04-24T22:55:50.307Z,14.10
2018-04-24T22:58:18.688Z,14.10
2018-04-24T23:00:46.955Z,14.10
2018-04-24T23:03:15.340Z,14.20
2018-04-24T23:05:43.615Z,14.10
2018-04-24T23:08:11.912Z,14.10
2018-04-24T23:19:26.743Z,14.00
2018-04-24T23:21:55.407Z,13.90
2018-04-24T23:24:23.694Z,13.90
2018-04-24T23:26:52.077Z,13.80
2018-04-24T23:29:20.372Z,13.70
2018-04-24T23:31:49.436Z,13.60
2018-04-24T23:34:17.715Z,13.50
2018-04-24T23:36:46.095Z,13.50
2018-04-24T23:39:14.408Z,13.50
2018-04-24T23:41:43.445Z,13.40
2018-04-24T23:44:11.753Z,13.40
2018-04-24T23:46:40.021Z,13.40
2018-04-24T23:49:08.327Z,13.30
2018-04-24T23:51:37.379Z,13.30
2018-04-24T23:54:05.692Z,13.30
2018-04-24T23:56:35.543Z,13.30
2018-04-24T23:59:03.842Z,13.30
